N6OIM Weather Reports


Display with metric or nautical units.
time (UTC)temp
F
wind
direction
speed
MPH
gust
MPH
rain 1hr
in
rain 24hr
in
rain mn
in
humidity
%
barometer
mb
20210622034407 78 140 1.0 3.0 0.00 0.00 0.00 39 1009.3
20210622031912 81 153 1.0 3.0 0.00 0.00 0.00 35 1009.1
20210622031409 81 194 1.0 3.0 0.00 0.00 0.00 35 1009.1
20210622030845 81 205 1.0 5.0 0.00 0.00 0.00 34 1009.1
20210622030332 82 161 3.0 5.0 0.00 0.00 0.00 33 1009.1
20210622025937 82 163 2.0 6.0 0.00 0.00 0.00 33 1009.1
20210622024356 84 186 3.0 5.0 0.00 0.00 0.00 30 1009.1
20210622023830 85 200 2.0 4.0 0.00 0.00 0.00 29 1009.0
20210622023434 85 209 1.0 4.0 0.00 0.00 0.00 29 1009.1
20210622022904 85 238 1.0 6.0 0.00 0.00 0.00 29 1009.1
20210622022353 85 221 3.0 6.0 0.00 0.00 0.00 29 1009.1
20210622021826 86 150 2.0 3.0 0.00 0.00 0.00 28 1009.2
20210622021340 86 217 2.0 5.0 0.00 0.00 0.00 29 1009.2
20210622020913 86 284 3.0 5.0 0.00 0.00 0.00 28 1009.1
20210622020344 87 244 2.0 4.0 0.00 0.00 0.00 27 1009.1
20210622015410 87 236 2.0 6.0 0.00 0.00 0.00 26 1009.0
20210622014413 88 171 1.0 7.0 0.00 0.00 0.00 27 1008.8
20210622013900 88 250 4.0 5.0 0.00 0.00 0.00 26 1008.8
20210622012413 89 234 1.0 6.0 0.00 0.00 0.00 25 1008.8
20210622010904 90 246 3.0 5.0 0.00 0.00 0.00 25 1008.8
20210622010354 90 240 5.0 6.0 0.00 0.00 0.00 25 1008.8
20210622005850 90 171 2.0 6.0 0.00 0.00 0.00 25 1008.9
20210622005347 90 241 2.0 5.0 0.00 0.00 0.00 24 1008.9
20210622004843 90 184 3.0 5.0 0.00 0.00 0.00 24 1008.9
20210622004331 91 244 0.0 4.0 0.00 0.00 0.00 25 1008.9
20210622003821 91 218 3.0 5.0 0.00 0.00 0.00 25 1008.9
20210622003410 91 229 3.0 7.0 0.00 0.00 0.00 24 1008.9
20210622000416 93 236 2.0 6.0 0.00 0.00 0.00 24 1009.0
20210621235829 93 130 1.0 4.0 0.00 0.00 0.00 26 1009.2
20210621235320 93 118 1.0 5.0 0.00 0.00 0.00 25 1009.1
20210621234818 93 206 3.0 5.0 0.00 0.00 0.00 26 1009.3
20210621233911 93 172 4.0 5.0 0.00 0.00 0.00 26 1009.4
20210621230915 90 217 0.0 4.0 0.00 0.00 0.00 29 1009.6
20210621225918 91 184 3.0 4.0 0.00 0.00 0.00 29 1009.7
20210621224414 91 269 2.0 5.0 0.00 0.00 0.00 28 1009.7
20210621223853 91 237 1.0 9.0 0.00 0.00 0.00 28 1009.6
20210621223331 91 217 2.0 9.0 0.00 0.00 0.00 28 1009.7
20210621222924 92 300 3.0 5.0 0.00 0.00 0.00 28 1009.8
20210621222353 91 268 2.0 4.0 0.00 0.00 0.00 29 1009.8
20210621221843 90 282 0.0 4.0 0.00 0.00 0.00 29 1009.9
20210621221409 90 298 2.0 4.0 0.00 0.00 0.00 29 1009.9
20210621215414 89 307 1.0 5.0 0.00 0.00 0.00 31 1009.8
20210621213405 89 287 2.0 3.0 0.00 0.00 0.00 31 1010.2
20210621212903 89 223 3.0 3.0 0.00 0.00 0.00 29 1010.2
20210621211914 89 244 2.0 6.0 0.00 0.00 0.00 30 1010.1
20210621211400 89 187 3.0 5.0 0.00 0.00 0.00 31 1010.1
20210621210826 89 205 2.0 5.0 0.00 0.00 0.00 31 1010.2
20210621210434 89 267 3.0 7.0 0.00 0.00 0.00 31 1010.1
20210621205853 88 266 4.0 7.0 0.00 0.00 0.00 30 1010.2
20210621205335 88 269 2.0 6.0 0.00 0.00 0.00 30 1010.3
20210621204825 88 261 3.0 4.0 0.00 0.00 0.00 30 1010.2
20210621204427 88 154 1.0 5.0 0.00 0.00 0.00 31 1010.2
20210621203856 88 181 4.0 5.0 0.00 0.00 0.00 30 1010.4
20210621203339 87 119 2.0 5.0 0.00 0.00 0.00 31 1010.3
20210621202832 87 288 3.0 5.0 0.00 0.00 0.00 30 1010.5
20210621202431 87 161 2.0 5.0 0.00 0.00 0.00 31 1010.5
20210621201903 87 207 2.0 5.0 0.00 0.00 0.00 30 1010.5
20210621201338 87 256 3.0 7.0 0.00 0.00 0.00 30 1010.5
20210621200828 87 189 3.0 7.0 0.00 0.00 0.00 30 1010.6
20210621200322 86 201 4.0 7.0 0.00 0.00 0.00 30 1010.6
20210621195826 86 227 3.0 5.0 0.00 0.00 0.00 29 1010.6
20210621195435 86 221 2.0 6.0 0.00 0.00 0.00 29 1010.6
20210621190406 84 60 3.0 6.0 0.00 0.00 0.00 32 1010.8
20210621185900 83 241 3.0 6.0 0.00 0.00 0.00 32 1010.9
20210621185321 83 321 3.0 7.0 0.00 0.00 0.00 33 1010.9
20210621184818 82 134 2.0 7.0 0.00 0.00 0.00 33 1010.9
20210621182928 81 235 3.0 7.0 0.00 0.00 0.00 36 1011.0
20210621182345 81 171 2.0 5.0 0.00 0.00 0.00 37 1010.9
20210621181845 80 218 1.0 5.0 0.00 0.00 0.00 37 1011.0
20210621181327 79 294 1.0 3.0 0.00 0.00 0.00 39 1011.0
20210621180934 79 198 0.0 4.0 0.00 0.00 0.00 40 1011.0
20210621180406 79 185 1.0 5.0 0.00 0.00 0.00 40 1011.0
20210621175358 78 260 5.0 7.0 0.00 0.00 0.00 40 1010.9
20210621174844 78 168 1.0 6.0 0.00 0.00 0.00 41 1010.9
20210621174342 77 169 2.0 6.0 0.00 0.00 0.00 42 1010.9
20210621173937 77 196 5.0 6.0 0.00 0.00 0.00 43 1010.9
20210621170406 74 141 3.0 7.0 0.00 0.00 0.00 46 1010.8
20210621165923 74 134 3.0 7.0 0.00 0.00 0.00 47 1010.9
20210621165341 73 156 1.0 6.0 0.00 0.00 0.00 49 1011.0
20210621162412 73 196 7.0 10.0 0.00 0.00 0.00 47 1010.6
20210621161410 73 160 4.0 7.0 0.00 0.00 0.00 47 1010.6
20210621160847 73 146 5.0 7.0 0.00 0.00 0.00 47 1010.5
20210621160325 72 206 1.0 4.0 0.00 0.00 0.00 48 1010.5
20210621155830 72 149 4.0 4.0 0.00 0.00 0.00 48 1010.6
20210621155321 72 52 2.0 6.0 0.00 0.00 0.00 49 1010.6
20210621153913 70 155 2.0 3.0 0.00 0.00 0.00 52 1010.4
20210621153402 70 152 2.0 6.0 0.00 0.00 0.00 53 1010.5
20210621152828 69 174 5.0 6.0 0.00 0.00 0.00 53 1010.4
20210621152335 69 128 3.0 7.0 0.00 0.00 0.00 53 1010.5
20210621151931 69 164 5.0 7.0 0.00 0.00 0.00 53 1010.5
20210621150910 68 121 3.0 5.0 0.00 0.00 0.00 55 1010.4
20210621150334 68 171 1.0 5.0 0.00 0.00 0.00 58 1010.4
20210621145822 67 177 3.0 5.0 0.00 0.00 0.00 58 1010.4
20210621145427 67 206 2.0 4.0 0.00 0.00 0.00 58 1010.2
20210621143909 65 169 3.0 5.0 0.00 0.00 0.00 62 1010.0
20210621143345 64 148 1.0 4.0 0.00 0.00 0.00 63 1010.0
20210621142828 64 206 1.0 4.0 0.00 0.00 0.00 64 1009.9
20210621142317 64 154 1.0 5.0 0.00 0.00 0.00 65 1009.9
20210621141917 63 176 3.0 6.0 0.00 0.00 0.00 65 1009.9
20210621130916 62 186 3.0 5.0 0.00 0.00 0.00 67 1009.4
20210621124402 63 171 1.0 5.0 0.00 0.00 0.00 64 1009.2
20210621123852 63 146 4.0 5.0 0.00 0.00 0.00 63 1009.1
20210621123427 63 141 3.0 5.0 0.00 0.00 0.00 62 1009.0
20210621122855 63 147 2.0 5.0 0.00 0.00 0.00 62 1009.0
20210621122331 63 166 2.0 3.0 0.00 0.00 0.00 62 1008.9
20210621121415 64 98 2.0 4.0 0.00 0.00 0.00 62 1008.8
20210621120408 64 166 0.0 4.0 0.00 0.00 0.00 60 1008.7
20210621115405 65 133 0.0 3.0 0.00 0.00 0.00 59 1008.6
20210621112916 65 128 0.0 4.0 0.00 0.00 0.00 56 1008.5
20210621112404 66 173 1.0 5.0 0.00 0.00 0.00 56 1008.5
20210621111848 66 145 2.0 5.0 0.00 0.00 0.00 56 1008.6
20210621111336 66 202 4.0 5.0 0.00 0.00 0.00 55 1008.5
20210621110934 66 148 2.0 3.0 0.00 0.00 0.00 55 1008.5
20210621110416 66 83 2.0 10.0 0.00 0.00 0.00 55 1008.5
20210621104414 67 80 2.0 4.0 0.00 0.00 0.00 53 1008.3
20210621103915 67 171 2.0 4.0 0.00 0.00 0.00 53 1008.3
20210621103343 67 152 2.0 4.0 0.00 0.00 0.00 52 1008.4
20210621102833 67 158 1.0 4.0 0.00 0.00 0.00 52 1008.3
20210621102429 67 130 0.0 3.0 0.00 0.00 0.00 52 1008.3
20210621101900 67 140 1.0 3.0 0.00 0.00 0.00 52 1008.4
20210621101355 67 130 1.0 4.0 0.00 0.00 0.00 52 1008.3
20210621100853 68 129 0.0 4.0 0.00 0.00 0.00 52 1008.3
20210621100541 68 146 4.0 4.0 0.00 0.00 0.00 51 1008.3
20210621095856 68 152 1.0 5.0 0.00 0.00 0.00 49 1008.3
20210621095330 69 142 1.0 2.0 0.00 0.00 0.00 49 1008.3
20210621094927 69 173 1.0 4.0 0.00 0.00 0.00 48 1008.3
20210621093907 70 145 2.0 7.0 0.00 0.00 0.00 46 1008.4
20210621093354 70 119 1.0 7.0 0.00 0.00 0.00 45 1008.3
20210621092845 70 110 3.0 5.0 0.00 0.00 0.00 44 1008.3
20210621092434 70 130 2.0 4.0 0.00 0.00 0.00 44 1008.3
20210621091907 71 118 3.0 6.0 0.00 0.00 0.00 43 1008.3
20210621091400 71 122 3.0 6.0 0.00 0.00 0.00 42 1008.4
20210621090935 71 117 1.0 6.0 0.00 0.00 0.00 42 1008.3
20210621090351 71 132 0.0 9.0 0.00 0.00 0.00 42 1008.2
20210621085827 71 128 3.0 9.0 0.00 0.00 0.00 42 1008.3
20210621085346 71 117 2.0 5.0 0.00 0.00 0.00 41 1008.3
20210621084842 71 122 1.0 4.0 0.00 0.00 0.00 41 1008.2
20210621084319 72 115 2.0 7.0 0.00 0.00 0.00 41 1008.3
20210621083859 72 129 3.0 7.0 0.00 0.00 0.00 41 1008.2
20210621083331 72 134 2.0 7.0 0.00 0.00 0.00 41 1008.3
20210621082826 72 110 2.0 10.0 0.00 0.00 0.00 42 1008.3
20210621082321 72 109 1.0 6.0 0.00 0.00 0.00 41 1008.3
20210621081821 72 137 1.0 6.0 0.00 0.00 0.00 41 1008.3
20210621081318 73 168 3.0 6.0 0.00 0.00 0.00 41 1008.2
20210621080856 73 123 2.0 5.0 0.00 0.00 0.00 41 1008.2
20210621080331 73 119 3.0 7.0 0.00 0.00 0.00 41 1008.3
20210621075815 74 115 2.0 7.0 0.00 0.00 0.00 41 1008.3
20210621075338 74 144 2.0 6.0 0.00 0.00 0.00 41 1008.2
20210621074854 74 110 3.0 6.0 0.00 0.00 0.00 40 1008.1
20210621074330 75 145 3.0 7.0 0.00 0.00 0.00 40 1008.1
20210621073823 75 92 4.0 7.0 0.00 0.00 0.00 39 1008.0
20210621073321 75 115 2.0 6.0 0.00 0.00 0.00 38 1008.0
20210621072820 76 128 2.0 5.0 0.00 0.00 0.00 37 1008.1
20210621072318 76 134 2.0 5.0 0.00 0.00 0.00 37 1008.0
20210621071841 76 149 1.0 5.0 0.00 0.00 0.00 37 1008.0
20210621071319 76 143 2.0 5.0 0.00 0.00 0.00 37 1007.9
20210621070836 77 113 2.0 5.0 0.00 0.00 0.00 37 1007.9
20210621070329 77 122 2.0 4.0 0.00 0.00 0.00 36 1007.8
20210621064901 77 107 2.0 3.0 0.00 0.00 0.00 36 1007.9
20210621062352 79 138 0.0 0.0 0.00 0.00 0.00 36 1008.0
20210621061847 79 138 0.0 0.0 0.00 0.00 0.00 36 1007.9
20210621061341 79 138 0.0 1.0 0.00 0.00 0.00 36 1007.8
20210621060842 79 138 1.0 1.0 0.00 0.00 0.00 36 1007.9
20210621054410 80 133 1.0 6.0 0.00 0.00 0.00 35 1007.6
20210621053854 81 138 4.0 6.0 0.00 0.00 0.00 34 1007.6
20210621053341 81 136 1.0 3.0 0.00 0.00 0.00 34 1007.5
20210621052826 81 128 1.0 2.0 0.00 0.00 0.00 34 1007.5
20210621052318 82 120 0.0 2.0 0.00 0.00 0.00 33 1007.5
20210621051909 82 119 1.0 3.0 0.00 0.00 0.00 33 1007.5
20210621051346 82 118 1.0 3.0 0.00 0.00 0.00 33 1007.5
20210621050414 83 117 2.0 3.0 0.00 0.00 0.00 32 1007.3
20210621045858 83 115 0.0 4.0 0.00 0.00 0.00 31 1007.2
20210621045341 84 115 2.0 4.0 0.00 0.00 0.00 30 1007.1
20210621044819 84 125 2.0 2.0 0.00 0.00 0.00 29 1007.1
20210621043916 85 124 1.0 4.0 0.00 0.00 0.00 28 1007.0
20210621043402 85 122 3.0 4.0 0.00 0.00 0.00 27 1006.9
20210621042902 86 148 0.0 2.0 0.00 0.00 0.00 26 1006.7
20210621042318 86 148 2.0 3.0 0.00 0.00 0.00 24 1006.6
20210621041921 87 150 1.0 3.0 0.00 0.00 0.00 23 1006.5
20210621041405 87 152 0.0 1.0 0.00 0.00 0.00 23 1006.5
20210621040838 87 155 0.0 2.0 0.00 0.00 0.00 22 1006.5
20210621040434 88 155 1.0 3.0 0.00 0.00 0.00 21 1006.4
20210621035858 88 153 2.0 3.0 0.00 0.00 0.00 21 1006.3
20210621035342 89 183 0.0 2.0 0.00 0.00 0.00 20 1006.3